AAL3306 KMIA-KSEA
Flight info
| Callsign | AAL3306 |
|---|---|
| Flight time | N/A |
| Altitude | 38000 |
| Route | HURCN4 SMELZ Q116 JAWJA MGM IGB UJM OSW HLC MBW DBS PDT CHINS5 |
| Aircraft | B38M/M-SDE1FGHILORVWXY/HB1 |
Departure
| Time | 2026-05-03 20:32 |
|---|---|
| Airport | Miami International Airport (KMIA) |
Arrival
| Time | N/A |
|---|---|
| Airport | Seattle–Tacoma International Airport (KSEA) |
| Time | Latitude | Longitude | Altitude | Speed | Heading |
|---|---|---|---|---|---|
| 2026-05-03 20:15 | 25.79827 | -80.28215 | 16 ft | 0 kts | 178° |
| 2026-05-03 20:21 | 25.79846 | -80.28215 | 18 ft | 4 kts | 178° |
| 2026-05-03 20:21 | 25.79872 | -80.28215 | 18 ft | 4 kts | 191° |
| 2026-05-03 20:22 | 25.79887 | -80.28209 | 16 ft | 4 kts | 223° |
| 2026-05-03 20:22 | 25.79893 | -80.28199 | 16 ft | 1 kts | 268° |
| 2026-05-03 20:25 | 25.79893 | -80.28202 | 16 ft | 2 kts | 268° |
| 2026-05-03 20:25 | 25.79891 | -80.28250 | 17 ft | 11 kts | 266° |
| 2026-05-03 20:25 | 25.79925 | -80.28311 | 17 ft | 10 kts | 345° |
| 2026-05-03 20:26 | 25.80003 | -80.28320 | 18 ft | 13 kts | 345° |
| 2026-05-03 20:26 | 25.80033 | -80.28411 | 17 ft | 15 kts | 265° |
| 2026-05-03 20:26 | 25.80029 | -80.28528 | 19 ft | 15 kts | 268° |
| 2026-05-03 20:26 | 25.80024 | -80.28635 | 24 ft | 13 kts | 265° |
| 2026-05-03 20:27 | 25.80019 | -80.28730 | 25 ft | 12 kts | 268° |
| 2026-05-03 20:27 | 25.80016 | -80.28833 | 24 ft | 16 kts | 266° |
| 2026-05-03 20:27 | 25.80009 | -80.28979 | 25 ft | 21 kts | 267° |
| 2026-05-03 20:27 | 25.80002 | -80.29139 | 24 ft | 21 kts | 267° |
| 2026-05-03 20:28 | 25.79995 | -80.29302 | 22 ft | 22 kts | 267° |
| 2026-05-03 20:28 | 25.79988 | -80.29489 | 16 ft | 26 kts | 268° |
| 2026-05-03 20:28 | 25.79981 | -80.29665 | 16 ft | 22 kts | 267° |
| 2026-05-03 20:28 | 25.79973 | -80.29824 | 15 ft | 16 kts | 266° |
| 2026-05-03 20:29 | 25.79970 | -80.29924 | 14 ft | 9 kts | 274° |
| 2026-05-03 20:29 | 25.79973 | -80.29946 | 14 ft | 0 kts | 281° |
| 2026-05-03 20:29 | 25.79974 | -80.29949 | 14 ft | 2 kts | 282° |
| 2026-05-03 20:30 | 25.79987 | -80.30006 | 14 ft | 14 kts | 284° |
| 2026-05-03 20:30 | 25.80013 | -80.30097 | 18 ft | 10 kts | 295° |
| 2026-05-03 20:30 | 25.80053 | -80.30123 | 17 ft | 7 kts | 8° |
| 2026-05-03 20:30 | 25.80073 | -80.30071 | 16 ft | 9 kts | 85° |
| 2026-05-03 20:31 | 25.80078 | -80.29959 | 14 ft | 32 kts | 88° |
| 2026-05-03 20:31 | 25.80100 | -80.29425 | 18 ft | 104 kts | 88° |
| 2026-05-03 20:31 | 25.80143 | -80.28382 | 18 ft | 164 kts | 87° |
| 2026-05-03 20:31 | 25.80180 | -80.26974 | 310 ft | 192 kts | 87° |
| 2026-05-03 20:32 | 25.80210 | -80.25468 | 1029 ft | 200 kts | 88° |
| 2026-05-03 20:32 | 25.80239 | -80.23872 | 1710 ft | 210 kts | 89° |
| 2026-05-03 20:32 | 25.80308 | -80.22197 | 2247 ft | 229 kts | 86° |
| 2026-05-03 20:32 | 25.80410 | -80.20349 | 2740 ft | 250 kts | 86° |
| 2026-05-03 20:33 | 25.80755 | -80.18457 | 3606 ft | 251 kts | 64° |
| 2026-05-03 20:33 | 25.81812 | -80.16951 | 4396 ft | 256 kts | 36° |
| 2026-05-03 20:33 | 25.83423 | -80.16119 | 5098 ft | 257 kts | 7° |
| 2026-05-03 20:33 | 25.85223 | -80.15956 | 5909 ft | 260 kts | 359° |
| 2026-05-03 20:34 | 25.87091 | -80.15857 | 6429 ft | 278 kts | 359° |
| 2026-05-03 20:34 | 25.89070 | -80.15803 | 7031 ft | 285 kts | 351° |
| 2026-05-03 20:34 | 25.90967 | -80.16311 | 7918 ft | 281 kts | 339° |
| 2026-05-03 20:34 | 25.92860 | -80.16952 | 8812 ft | 286 kts | 338° |
| 2026-05-03 20:35 | 25.94746 | -80.17598 | 9870 ft | 289 kts | 338° |
| 2026-05-03 20:35 | 25.96682 | -80.18275 | 10698 ft | 299 kts | 336° |
| 2026-05-03 20:35 | 25.98481 | -80.19467 | 11074 ft | 308 kts | 311° |
| 2026-05-03 20:35 | 25.99690 | -80.21462 | 11441 ft | 318 kts | 290° |
| 2026-05-03 20:36 | 26.00543 | -80.23818 | 11822 ft | 331 kts | 290° |
| 2026-05-03 20:36 | 26.01408 | -80.26168 | 12504 ft | 333 kts | 289° |
| 2026-05-03 20:36 | 26.02281 | -80.28562 | 13164 ft | 336 kts | 289° |
| 2026-05-03 20:36 | 26.03171 | -80.31018 | 13832 ft | 339 kts | 289° |
| 2026-05-03 20:37 | 26.04041 | -80.33426 | 14382 ft | 342 kts | 289° |
| 2026-05-03 20:37 | 26.04943 | -80.35922 | 14970 ft | 344 kts | 289° |
| 2026-05-03 20:37 | 26.05823 | -80.38364 | 15553 ft | 346 kts | 289° |
| 2026-05-03 20:37 | 26.06725 | -80.40867 | 15906 ft | 350 kts | 289° |
| 2026-05-03 20:38 | 26.07628 | -80.43373 | 15985 ft | 349 kts | 288° |
| 2026-05-03 20:38 | 26.08528 | -80.45873 | 16008 ft | 348 kts | 288° |
| 2026-05-03 20:38 | 26.09427 | -80.48372 | 16007 ft | 348 kts | 288° |
| 2026-05-03 20:38 | 26.10326 | -80.50871 | 16012 ft | 349 kts | 288° |
| 2026-05-03 20:39 | 26.11229 | -80.53384 | 16456 ft | 349 kts | 288° |
| 2026-05-03 20:39 | 26.12139 | -80.55894 | 17054 ft | 352 kts | 291° |
| 2026-05-03 20:39 | 26.13495 | -80.58189 | 17605 ft | 361 kts | 309° |
| 2026-05-03 20:39 | 26.15496 | -80.59944 | 18127 ft | 374 kts | 326° |
| 2026-05-03 20:40 | 26.17873 | -80.61178 | 18601 ft | 379 kts | 329° |
| 2026-05-03 20:40 | 26.20299 | -80.62381 | 18999 ft | 383 kts | 330° |
| 2026-05-03 20:40 | 26.22751 | -80.63577 | 19432 ft | 385 kts | 330° |
| 2026-05-03 20:40 | 26.25218 | -80.64768 | 19861 ft | 388 kts | 330° |
| 2026-05-03 20:41 | 26.27703 | -80.65961 | 20308 ft | 391 kts | 330° |